Terminal Aerodrome Forecast
Issued by NWS

Home | Current Version | Previous Version | Graphics & Text | Print | Product List | Glossary On
Versions: 1 2 3 4 5 6 7 8 9 10 11 12 13 14 15 16 17 18 19 20 21 22 23
000
FTUS43 KBIS 200347 AAA
TAFMOT
TAF AMD
KMOT 200347Z 2004/2024 21005KT P6SM FEW250
     FM200900 16005KT 3SM BR BKN009
     FM201200 14006KT 1SM BR VV005
     FM202200 13005KT 4SM BR BKN015
     FM202300 12006KT 2SM BR BKN005=

USA.gov is the U.S. government's official web portal to all federal, state and local government web resources and services.